createdAt,value
2023-01-18T00:01:56.000Z,0
2023-01-18T00:04:41.000Z,0
2023-01-18T00:07:25.000Z,0
2023-01-18T00:10:10.000Z,0
2023-01-18T00:12:55.000Z,0
2023-01-18T00:15:39.000Z,0
2023-01-18T00:18:24.000Z,0
2023-01-18T00:21:09.000Z,0
2023-01-18T00:22:27.000Z,0
2023-01-18T00:23:53.000Z,0
2023-01-18T00:26:38.000Z,0
2023-01-18T00:29:22.000Z,0
2023-01-18T00:32:07.000Z,0
2023-01-18T00:34:52.000Z,0
2023-01-18T00:37:36.000Z,0
2023-01-18T00:40:21.000Z,0
2023-01-18T00:43:06.000Z,0
2023-01-18T00:45:50.000Z,0
2023-01-18T00:48:35.000Z,0
2023-01-18T00:49:53.000Z,0
2023-01-18T00:51:20.000Z,0
2023-01-18T00:54:04.000Z,0
2023-01-18T00:56:49.000Z,0
2023-01-18T00:59:34.000Z,0
2023-01-18T01:02:18.000Z,0
2023-01-18T01:05:03.000Z,0
2023-01-18T01:08:04.000Z,0
2023-01-18T01:10:48.000Z,0
2023-01-18T01:13:33.000Z,0
2023-01-18T01:16:18.000Z,0
2023-01-18T01:17:35.000Z,0
2023-01-18T01:19:02.000Z,0
2023-01-18T01:21:47.000Z,0
2023-01-18T01:24:32.000Z,0
2023-01-18T01:27:16.000Z,0
2023-01-18T01:30:01.000Z,0
2023-01-18T01:32:46.000Z,0
2023-01-18T01:35:30.000Z,0
2023-01-18T01:38:15.000Z,0
2023-01-18T01:41:00.000Z,0
2023-01-18T01:43:44.000Z,0
2023-01-18T01:45:02.000Z,0
2023-01-18T01:46:29.000Z,0
2023-01-18T01:49:13.000Z,0
2023-01-18T01:51:58.000Z,0
2023-01-18T01:54:43.000Z,0
2023-01-18T01:57:27.000Z,0
2023-01-18T02:00:12.000Z,0
2023-01-18T02:02:57.000Z,0
2023-01-18T02:05:41.000Z,0
2023-01-18T02:08:26.000Z,0
2023-01-18T02:11:11.000Z,0
2023-01-18T02:12:28.000Z,0
2023-01-18T02:13:55.000Z,0
2023-01-18T02:16:40.000Z,0
2023-01-18T02:19:25.000Z,0
2023-01-18T02:22:09.000Z,0
2023-01-18T02:24:54.000Z,0
2023-01-18T02:27:38.000Z,0
2023-01-18T02:30:23.000Z,0
2023-01-18T02:33:08.000Z,0
2023-01-18T02:35:52.000Z,0
2023-01-18T02:38:37.000Z,0
2023-01-18T02:39:55.000Z,0
2023-01-18T02:41:22.000Z,0
2023-01-18T02:44:06.000Z,0
2023-01-18T02:46:51.000Z,0
2023-01-18T02:49:36.000Z,0
2023-01-18T02:52:20.000Z,0
2023-01-18T02:55:05.000Z,0
2023-01-18T02:57:49.000Z,0
2023-01-18T03:00:34.000Z,0
2023-01-18T03:03:19.000Z,0
2023-01-18T03:06:03.000Z,0
2023-01-18T03:07:21.000Z,0
2023-01-18T03:08:48.000Z,0
2023-01-18T03:11:33.000Z,0
2023-01-18T03:14:17.000Z,0
2023-01-18T03:19:47.000Z,0
2023-01-18T03:22:31.000Z,0
2023-01-18T03:25:16.000Z,0
2023-01-18T03:28:01.000Z,0
2023-01-18T03:30:45.000Z,0
2023-01-18T03:33:30.000Z,0
2023-01-18T03:34:48.000Z,0
2023-01-18T03:36:14.000Z,0
2023-01-18T03:38:59.000Z,0
2023-01-18T03:41:44.000Z,0
2023-01-18T03:44:28.000Z,0
2023-01-18T03:47:13.000Z,0
2023-01-18T03:49:58.000Z,0
2023-01-18T03:52:42.000Z,0
2023-01-18T03:55:27.000Z,0
2023-01-18T03:58:12.000Z,0
2023-01-18T04:00:56.000Z,0
2023-01-18T04:02:14.000Z,0
2023-01-18T04:03:41.000Z,0
2023-01-18T04:06:26.000Z,0
2023-01-18T04:09:10.000Z,0
2023-01-18T04:11:55.000Z,0
2023-01-18T04:14:39.000Z,0
2023-01-18T04:17:24.000Z,0
2023-01-18T04:20:09.000Z,0
2023-01-18T04:22:53.000Z,0
2023-01-18T04:25:38.000Z,0
2023-01-18T04:28:23.000Z,0
2023-01-18T04:29:41.000Z,0
2023-01-18T04:31:07.000Z,0
2023-01-18T04:33:52.000Z,0
2023-01-18T04:36:37.000Z,0
2023-01-18T04:39:21.000Z,0
2023-01-18T04:42:06.000Z,0
2023-01-18T04:44:51.000Z,0
2023-01-18T04:47:35.000Z,0
2023-01-18T04:50:20.000Z,0
2023-01-18T04:53:04.000Z,0
2023-01-18T04:55:49.000Z,0
2023-01-18T04:57:07.000Z,0
2023-01-18T05:01:18.000Z,0
2023-01-18T05:04:03.000Z,0
2023-01-18T05:06:48.000Z,0
2023-01-18T05:09:32.000Z,0
2023-01-18T05:12:17.000Z,0
2023-01-18T05:15:02.000Z,0
2023-01-18T05:17:46.000Z,0
2023-01-18T05:20:31.000Z,0
2023-01-18T05:23:16.000Z,0
2023-01-18T05:24:33.000Z,0
2023-01-18T05:26:00.000Z,0
2023-01-18T05:28:45.000Z,0
2023-01-18T05:31:29.000Z,0
2023-01-18T05:34:14.000Z,0
2023-01-18T05:36:59.000Z,0
2023-01-18T05:39:43.000Z,0
2023-01-18T05:42:28.000Z,0
2023-01-18T05:45:13.000Z,0
2023-01-18T05:47:57.000Z,0
2023-01-18T05:50:42.000Z,0
2023-01-18T05:52:00.000Z,0
2023-01-18T05:53:27.000Z,0
2023-01-18T05:56:11.000Z,0
2023-01-18T05:58:56.000Z,0
2023-01-18T06:01:41.000Z,0
2023-01-18T06:04:25.000Z,0
2023-01-18T06:07:10.000Z,0
2023-01-18T06:09:54.000Z,0
2023-01-18T06:12:39.000Z,0
2023-01-18T06:15:24.000Z,0
2023-01-18T06:18:08.000Z,0
2023-01-18T06:19:26.000Z,0
2023-01-18T06:20:53.000Z,0
2023-01-18T06:23:38.000Z,0
2023-01-18T06:26:22.000Z,0
2023-01-18T06:29:07.000Z,0
2023-01-18T06:31:52.000Z,0
2023-01-18T06:34:36.000Z,0
2023-01-18T06:37:21.000Z,0
2023-01-18T06:40:05.000Z,0
2023-01-18T06:42:50.000Z,0
2023-01-18T06:45:35.000Z,0
2023-01-18T06:46:53.000Z,0
2023-01-18T06:48:19.000Z,0
2023-01-18T06:51:04.000Z,0
2023-01-18T06:53:49.000Z,0
2023-01-18T06:56:33.000Z,0
2023-01-18T06:59:18.000Z,0
2023-01-18T07:02:03.000Z,0
2023-01-18T07:04:47.000Z,0
2023-01-18T07:07:32.000Z,0
2023-01-18T07:10:17.000Z,0
2023-01-18T07:13:01.000Z,0
2023-01-18T07:14:19.000Z,0
2023-01-18T07:15:46.000Z,0
2023-01-18T07:18:30.000Z,0
2023-01-18T07:21:15.000Z,0
2023-01-18T07:24:00.000Z,5
2023-01-18T07:26:44.000Z,5
2023-01-18T07:29:29.000Z,5
2023-01-18T07:32:14.000Z,11
2023-01-18T07:34:58.000Z,11
2023-01-18T07:37:43.000Z,16
2023-01-18T07:40:28.000Z,16
2023-01-18T07:41:46.000Z,22
2023-01-18T07:43:12.000Z,22
2023-01-18T07:45:57.000Z,22
2023-01-18T07:48:42.000Z,28
2023-01-18T07:51:26.000Z,33
2023-01-18T07:54:11.000Z,39
2023-01-18T07:56:55.000Z,45
2023-01-18T07:59:40.000Z,45
2023-01-18T08:02:25.000Z,50
2023-01-18T08:05:09.000Z,56
2023-01-18T08:07:54.000Z,67
2023-01-18T08:09:12.000Z,73
2023-01-18T08:10:39.000Z,73
2023-01-18T08:13:23.000Z,78
2023-01-18T08:16:08.000Z,90
2023-01-18T08:18:53.000Z,95
2023-01-18T08:21:37.000Z,101
2023-01-18T08:24:22.000Z,106
2023-01-18T08:27:07.000Z,106
2023-01-18T08:29:51.000Z,112
2023-01-18T08:32:36.000Z,123
2023-01-18T08:35:20.000Z,129
2023-01-18T08:36:38.000Z,135
2023-01-18T08:38:05.000Z,135
2023-01-18T08:40:50.000Z,140
2023-01-18T08:43:34.000Z,151
2023-01-18T08:46:19.000Z,163
2023-01-18T08:49:04.000Z,168
2023-01-18T08:51:48.000Z,174
2023-01-18T08:54:33.000Z,185
2023-01-18T08:57:18.000Z,196
2023-01-18T09:00:02.000Z,208
2023-01-18T09:02:47.000Z,247
2023-01-18T09:04:05.000Z,337
2023-01-18T09:05:32.000Z,382
2023-01-18T09:08:16.000Z,382
2023-01-18T09:11:01.000Z,371
2023-01-18T09:13:45.000Z,320
2023-01-18T09:16:30.000Z,348
2023-01-18T09:19:15.000Z,270
2023-01-18T09:21:59.000Z,270
2023-01-18T09:24:44.000Z,410
2023-01-18T09:27:29.000Z,360
2023-01-18T09:30:30.000Z,444
2023-01-18T09:31:47.000Z,438
2023-01-18T09:33:14.000Z,500
2023-01-18T09:35:59.000Z,607
2023-01-18T09:38:44.000Z,495
2023-01-18T09:41:28.000Z,360
2023-01-18T09:44:13.000Z,421
2023-01-18T09:46:58.000Z,680
2023-01-18T09:49:42.000Z,534
2023-01-18T09:52:27.000Z,382
2023-01-18T09:55:11.000Z,365
2023-01-18T09:57:56.000Z,371
2023-01-18T09:59:14.000Z,410
2023-01-18T10:00:41.000Z,399
2023-01-18T10:03:25.000Z,354
2023-01-18T10:06:10.000Z,360
2023-01-18T10:08:55.000Z,618
2023-01-18T10:11:39.000Z,382
2023-01-18T10:14:24.000Z,376
2023-01-18T10:17:09.000Z,551
2023-01-18T10:19:53.000Z,618
2023-01-18T10:22:38.000Z,573
2023-01-18T10:25:23.000Z,579
2023-01-18T10:26:40.000Z,573
2023-01-18T10:28:07.000Z,461
2023-01-18T10:30:52.000Z,315
2023-01-18T10:36:21.000Z,466
2023-01-18T10:39:06.000Z,455
2023-01-18T10:41:50.000Z,613
2023-01-18T10:44:35.000Z,466
2023-01-18T10:47:20.000Z,337
2023-01-18T10:50:04.000Z,421
2023-01-18T10:52:49.000Z,691
2023-01-18T10:54:07.000Z,523
2023-01-18T10:55:34.000Z,416
2023-01-18T10:58:18.000Z,309
2023-01-18T11:01:03.000Z,399
2023-01-18T11:03:47.000Z,433
2023-01-18T11:06:32.000Z,601
2023-01-18T11:09:17.000Z,866
2023-01-18T11:12:01.000Z,658
2023-01-18T11:14:46.000Z,658
2023-01-18T11:17:31.000Z,630
2023-01-18T11:20:15.000Z,928
2023-01-18T11:21:33.000Z,815
2023-01-18T11:23:00.000Z,478
2023-01-18T11:25:45.000Z,376
2023-01-18T11:28:29.000Z,410
2023-01-18T11:31:14.000Z,410
2023-01-18T11:33:59.000Z,421
2023-01-18T11:36:43.000Z,466
2023-01-18T11:39:28.000Z,495
2023-01-18T11:42:12.000Z,540
2023-01-18T11:44:57.000Z,675
2023-01-18T11:47:42.000Z,736
2023-01-18T11:49:00.000Z,613
2023-01-18T11:50:26.000Z,348
2023-01-18T11:53:11.000Z,343
2023-01-18T11:55:56.000Z,618
2023-01-18T11:58:40.000Z,646
2023-01-18T12:01:25.000Z,573
2023-01-18T12:04:10.000Z,562
2023-01-18T12:06:54.000Z,641
2023-01-18T12:09:39.000Z,793
2023-01-18T12:12:24.000Z,545
2023-01-18T12:15:08.000Z,680
2023-01-18T12:16:26.000Z,466
2023-01-18T12:17:53.000Z,410
2023-01-18T12:20:37.000Z,365
2023-01-18T12:23:22.000Z,652
2023-01-18T12:26:07.000Z,511
2023-01-18T12:28:51.000Z,534
2023-01-18T12:31:36.000Z,551
2023-01-18T12:34:21.000Z,585
2023-01-18T12:37:05.000Z,607
2023-01-18T12:39:50.000Z,320
2023-01-18T12:42:35.000Z,410
2023-01-18T12:43:52.000Z,433
2023-01-18T12:45:19.000Z,663
2023-01-18T12:48:04.000Z,641
2023-01-18T12:50:48.000Z,360
2023-01-18T12:53:33.000Z,511
2023-01-18T12:59:02.000Z,697
2023-01-18T13:01:47.000Z,247
2023-01-18T13:04:32.000Z,708
2023-01-18T13:07:16.000Z,545
2023-01-18T13:10:01.000Z,720
2023-01-18T13:11:19.000Z,421
2023-01-18T13:12:46.000Z,478
2023-01-18T13:15:30.000Z,635
2023-01-18T13:18:15.000Z,624
2023-01-18T13:21:00.000Z,669
2023-01-18T13:23:44.000Z,230
2023-01-18T13:26:29.000Z,568
2023-01-18T13:29:13.000Z,444
2023-01-18T13:31:58.000Z,472
2023-01-18T13:34:43.000Z,433
2023-01-18T13:37:27.000Z,163
2023-01-18T13:38:45.000Z,151
2023-01-18T13:40:12.000Z,146
2023-01-18T13:42:57.000Z,146
2023-01-18T13:45:41.000Z,140
2023-01-18T13:48:26.000Z,140
2023-01-18T13:51:11.000Z,230
2023-01-18T13:53:55.000Z,225
2023-01-18T13:56:40.000Z,196
2023-01-18T13:59:25.000Z,168
2023-01-18T14:04:54.000Z,185
2023-01-18T14:06:12.000Z,174
2023-01-18T14:07:38.000Z,168
2023-01-18T14:10:23.000Z,157
2023-01-18T14:13:08.000Z,135
2023-01-18T14:15:52.000Z,118
2023-01-18T14:18:37.000Z,118
2023-01-18T14:21:22.000Z,112
2023-01-18T14:24:06.000Z,112
2023-01-18T14:26:51.000Z,140
2023-01-18T14:29:36.000Z,140
2023-01-18T14:32:20.000Z,135
2023-01-18T14:33:38.000Z,135
2023-01-18T14:35:05.000Z,129
2023-01-18T14:40:34.000Z,118
2023-01-18T14:43:19.000Z,101
2023-01-18T14:46:03.000Z,95
2023-01-18T14:48:48.000Z,90
2023-01-18T14:51:33.000Z,90
2023-01-18T14:54:17.000Z,90
2023-01-18T14:57:02.000Z,84
2023-01-18T14:59:47.000Z,84
2023-01-18T15:01:05.000Z,78
2023-01-18T15:02:31.000Z,78
2023-01-18T15:05:16.000Z,73
2023-01-18T15:08:01.000Z,67
2023-01-18T15:10:45.000Z,61
2023-01-18T15:13:30.000Z,56
2023-01-18T15:16:15.000Z,50
2023-01-18T15:18:59.000Z,50
2023-01-18T15:21:44.000Z,45
2023-01-18T15:24:28.000Z,45
2023-01-18T15:27:13.000Z,39
2023-01-18T15:28:31.000Z,33
2023-01-18T15:29:58.000Z,33
2023-01-18T15:32:42.000Z,28
2023-01-18T15:35:27.000Z,22
2023-01-18T15:38:12.000Z,22
2023-01-18T15:40:56.000Z,16
2023-01-18T15:43:41.000Z,11
2023-01-18T15:46:26.000Z,11
2023-01-18T15:49:10.000Z,5
2023-01-18T15:51:55.000Z,5
2023-01-18T15:54:39.000Z,5
2023-01-18T15:55:57.000Z,5
2023-01-18T15:57:24.000Z,0
2023-01-18T16:00:09.000Z,0
2023-01-18T16:02:53.000Z,0
2023-01-18T16:05:38.000Z,0
2023-01-18T16:08:23.000Z,0
2023-01-18T16:11:07.000Z,0
2023-01-18T16:13:52.000Z,0
2023-01-18T16:16:37.000Z,0
2023-01-18T16:19:21.000Z,0
2023-01-18T16:23:24.000Z,0
2023-01-18T16:24:51.000Z,0
2023-01-18T16:27:35.000Z,0
2023-01-18T16:30:20.000Z,0
2023-01-18T16:33:04.000Z,0
2023-01-18T16:35:49.000Z,0
2023-01-18T16:38:34.000Z,0
2023-01-18T16:41:18.000Z,0
2023-01-18T16:44:03.000Z,0
2023-01-18T16:46:48.000Z,0
2023-01-18T16:49:32.000Z,0
2023-01-18T16:50:50.000Z,0
2023-01-18T16:52:17.000Z,0
2023-01-18T16:55:02.000Z,0
2023-01-18T16:57:46.000Z,0
2023-01-18T17:00:31.000Z,0
2023-01-18T17:03:16.000Z,0
2023-01-18T17:06:00.000Z,0
2023-01-18T17:08:45.000Z,0
2023-01-18T17:11:29.000Z,0
2023-01-18T17:14:14.000Z,0
2023-01-18T17:16:59.000Z,0
2023-01-18T17:18:17.000Z,0
2023-01-18T17:19:43.000Z,0
2023-01-18T17:22:28.000Z,0
2023-01-18T17:25:13.000Z,0
2023-01-18T17:27:57.000Z,0
2023-01-18T17:30:42.000Z,0
2023-01-18T17:33:27.000Z,0
2023-01-18T17:36:11.000Z,0
2023-01-18T17:38:56.000Z,0
2023-01-18T17:41:41.000Z,0
2023-01-18T17:44:25.000Z,0
2023-01-18T17:45:43.000Z,0
2023-01-18T17:47:10.000Z,0
2023-01-18T17:49:55.000Z,0
2023-01-18T17:52:55.000Z,0
2023-01-18T17:55:40.000Z,0
2023-01-18T17:58:25.000Z,0
2023-01-18T18:01:09.000Z,0
2023-01-18T18:03:54.000Z,0
2023-01-18T18:06:39.000Z,0
2023-01-18T18:12:08.000Z,0
2023-01-18T18:13:26.000Z,0
2023-01-18T18:14:53.000Z,0
2023-01-18T18:17:37.000Z,0
2023-01-18T18:20:22.000Z,0
2023-01-18T18:23:07.000Z,0
2023-01-18T18:25:51.000Z,0
2023-01-18T18:28:36.000Z,0
2023-01-18T18:31:20.000Z,0
2023-01-18T18:34:05.000Z,0
2023-01-18T18:36:50.000Z,0
2023-01-18T18:39:34.000Z,0
2023-01-18T18:40:52.000Z,0
2023-01-18T18:42:19.000Z,0
2023-01-18T18:45:04.000Z,0
2023-01-18T18:47:48.000Z,0
2023-01-18T18:50:33.000Z,0
2023-01-18T18:53:18.000Z,0
2023-01-18T18:56:02.000Z,0
2023-01-18T18:58:47.000Z,0
2023-01-18T19:01:31.000Z,0
2023-01-18T19:04:16.000Z,0
2023-01-18T19:07:01.000Z,0
2023-01-18T19:08:19.000Z,0
2023-01-18T19:09:45.000Z,0
2023-01-18T19:12:30.000Z,0
2023-01-18T19:15:15.000Z,0
2023-01-18T19:17:59.000Z,0
2023-01-18T19:20:44.000Z,0
2023-01-18T19:23:29.000Z,0
2023-01-18T19:26:13.000Z,0
2023-01-18T19:28:58.000Z,0
2023-01-18T19:31:43.000Z,0
2023-01-18T19:34:27.000Z,0
2023-01-18T19:35:45.000Z,0
2023-01-18T19:37:12.000Z,0
2023-01-18T19:39:56.000Z,0
2023-01-18T19:42:41.000Z,0
2023-01-18T19:45:26.000Z,0
2023-01-18T19:48:10.000Z,0
2023-01-18T19:50:55.000Z,0
2023-01-18T19:53:40.000Z,0
2023-01-18T19:56:24.000Z,0
2023-01-18T19:59:09.000Z,0
2023-01-18T20:01:54.000Z,0
2023-01-18T20:03:11.000Z,0
2023-01-18T20:04:38.000Z,0
2023-01-18T20:07:23.000Z,0
2023-01-18T20:10:08.000Z,0
2023-01-18T20:12:52.000Z,0
2023-01-18T20:15:37.000Z,0
2023-01-18T20:18:21.000Z,0
2023-01-18T20:21:06.000Z,0
2023-01-18T20:23:51.000Z,0
2023-01-18T20:26:35.000Z,0
2023-01-18T20:29:20.000Z,0
2023-01-18T20:30:38.000Z,0
2023-01-18T20:32:05.000Z,0
2023-01-18T20:34:49.000Z,0
2023-01-18T20:37:34.000Z,0
2023-01-18T20:40:19.000Z,0
2023-01-18T20:43:03.000Z,0
2023-01-18T20:45:48.000Z,0
2023-01-18T20:48:33.000Z,0
2023-01-18T20:51:17.000Z,0
2023-01-18T20:54:02.000Z,0
2023-01-18T20:56:46.000Z,0
2023-01-18T20:58:04.000Z,0
2023-01-18T20:59:31.000Z,0
2023-01-18T21:02:16.000Z,0
2023-01-18T21:05:00.000Z,0
2023-01-18T21:07:45.000Z,0
2023-01-18T21:10:30.000Z,0
2023-01-18T21:13:14.000Z,0
2023-01-18T21:15:59.000Z,0
2023-01-18T21:18:44.000Z,0
2023-01-18T21:21:28.000Z,0
2023-01-18T21:24:13.000Z,0
2023-01-18T21:25:31.000Z,0
2023-01-18T21:26:57.000Z,0
2023-01-18T21:29:42.000Z,0
2023-01-18T21:35:11.000Z,0
2023-01-18T21:40:41.000Z,0
2023-01-18T21:43:25.000Z,0
2023-01-18T21:46:10.000Z,0
2023-01-18T21:48:55.000Z,0
2023-01-18T21:52:57.000Z,0
2023-01-18T21:54:24.000Z,0
2023-01-18T21:57:09.000Z,0
2023-01-18T22:00:10.000Z,0
2023-01-18T22:02:54.000Z,0
2023-01-18T22:05:39.000Z,0
2023-01-18T22:08:23.000Z,0
2023-01-18T22:11:08.000Z,0
2023-01-18T22:13:53.000Z,0
2023-01-18T22:16:37.000Z,0
2023-01-18T22:19:22.000Z,0
2023-01-18T22:20:40.000Z,0
2023-01-18T22:22:07.000Z,0
2023-01-18T22:24:51.000Z,0
2023-01-18T22:27:52.000Z,0
2023-01-18T22:30:37.000Z,0
2023-01-18T22:33:22.000Z,0
2023-01-18T22:36:06.000Z,0
2023-01-18T22:38:51.000Z,0
2023-01-18T22:41:36.000Z,0
2023-01-18T22:44:20.000Z,0
2023-01-18T22:47:05.000Z,0
2023-01-18T22:48:23.000Z,0
2023-01-18T22:49:49.000Z,0
2023-01-18T22:52:34.000Z,0
2023-01-18T22:55:19.000Z,0
2023-01-18T22:58:03.000Z,0
2023-01-18T23:00:48.000Z,0
2023-01-18T23:03:33.000Z,0
2023-01-18T23:06:17.000Z,0
2023-01-18T23:11:47.000Z,0
2023-01-18T23:14:31.000Z,0
2023-01-18T23:15:49.000Z,0
2023-01-18T23:17:16.000Z,0
2023-01-18T23:20:01.000Z,0
2023-01-18T23:22:45.000Z,0
2023-01-18T23:25:30.000Z,0
2023-01-18T23:28:14.000Z,0
2023-01-18T23:33:44.000Z,0
2023-01-18T23:36:28.000Z,0
2023-01-18T23:39:13.000Z,0
2023-01-18T23:44:42.000Z,0
2023-01-18T23:47:27.000Z,0
2023-01-18T23:50:12.000Z,0
2023-01-18T23:53:13.000Z,0
2023-01-18T23:55:57.000Z,0
2023-01-18T23:58:42.000Z,0
